Time;durP1;ratioP1;P1;durP2;ratioP2;P2;SDS_P1;SDS_P2;PMS_P1;PMS_P2;Temp;Humidity;BMP_temperature;BMP_pressure;BME280_temperature;BME280_humidity;BME280_pressure;Samples;Min_cycle;Max_cycle;Signal;HPM_P1;HPM_P2
2022/04/18 00:00:49;;;;;;;0.63;0.60;;;;;;;0.47;100.00;97532.16;10289591;28;20061;-63
2022/04/18 00:05:48;;;;;;;0.70;0.70;;;;;;;0.14;100.00;97476.59;10289879;28;20369;-63
2022/04/18 00:10:47;;;;;;;0.75;0.60;;;;;;;0.58;100.00;97532.56;10289240;28;20034;-63
2022/04/18 00:15:46;;;;;;;0.68;0.68;;;;;;;0.45;100.00;97509.16;10289541;28;20029;-63
2022/04/18 00:20:45;;;;;;;1.27;0.90;;;;;;;0.59;100.00;97532.63;10289272;28;20030;-63
2022/04/18 00:25:44;;;;;;;2.20;1.00;;;;;;;0.45;100.00;97493.84;10289467;28;20496;-63
2022/04/18 00:30:43;;;;;;;0.80;0.80;;;;;;;0.52;100.00;97505.13;10288933;28;20551;-63
2022/04/18 00:35:42;;;;;;;0.52;0.50;;;;;;;0.39;100.00;97485.09;10291367;28;20061;-63
2022/04/18 00:40:41;;;;;;;0.65;0.65;;;;;;;0.50;100.00;97522.09;10296664;28;20030;-63
2022/04/18 00:45:41;;;;;;;0.80;0.70;;;;;;;0.40;100.00;97508.13;10296647;28;20058;-63
2022/04/18 00:50:40;;;;;;;;;;;;;;;0.33;100.00;97500.19;10296816;28;20088;-63
2022/04/18 00:55:39;;;;;;;1.15;0.60;;;;;;;0.31;100.00;97502.72;10294731;28;19944;-63
2022/04/18 01:00:38;;;;;;;0.50;0.50;;;;;;;0.40;100.00;97504.69;10296179;28;20034;-63
2022/04/18 01:05:37;;;;;;;0.82;0.70;;;;;;;0.48;100.00;97496.50;10296039;28;20034;-63
2022/04/18 01:10:37;;;;;;;0.65;0.65;;;;;;;0.44;100.00;97487.00;10295086;28;20065;-63
2022/04/18 01:15:37;;;;;;;2.92;1.10;;;;;;;0.44;100.00;97476.78;10295375;28;20077;-63
2022/04/18 01:20:36;;;;;;;1.08;0.90;;;;;;;-0.04;100.00;97423.25;10295252;28;20065;-63
2022/04/18 01:30:52;;;;;;;1.90;1.30;;;;;;;0.08;100.00;97457.63;10295469;28;20073;-63
2022/04/18 01:35:51;;;;;;;0.73;0.73;;;;;;;0.26;100.00;97471.03;10294485;28;20077;-63
2022/04/18 01:40:50;;;;;;;1.25;1.10;;;;;;;0.27;100.00;97468.56;10294457;28;20502;-63
2022/04/18 01:45:50;;;;;;;2.83;1.08;;;;;;;0.11;100.00;97406.75;10293885;28;20084;-63
2022/04/18 01:50:49;;;;;;;2.05;1.45;;;;;;;0.29;100.00;97445.66;10293952;28;20499;-63
2022/04/18 01:55:48;;;;;;;1.02;0.93;;;;;;;0.45;100.00;97449.56;10294202;28;20571;-63
2022/04/18 02:00:47;;;;;;;0.70;0.70;;;;;;;0.30;100.00;97421.00;10294057;28;20465;-63
2022/04/18 02:05:47;;;;;;;1.38;1.00;;;;;;;0.08;100.00;97386.19;10293995;28;20474;-63
2022/04/18 02:10:47;;;;;;;1.88;1.10;;;;;;;0.33;100.00;97396.41;10293875;28;20365;-63
2022/04/18 02:15:46;;;;;;;1.15;0.95;;;;;;;0.56;100.00;97411.63;10293055;28;20065;-63
2022/04/18 02:20:45;;;;;;;2.45;1.15;;;;;;;0.44;100.00;97390.00;10293090;28;20038;-63
2022/04/18 02:25:44;;;;;;;1.83;1.25;;;;;;;0.47;100.00;97394.31;10293394;28;20036;-63
2022/04/18 02:30:43;;;;;;;1.15;0.95;;;;;;;0.07;100.00;97351.31;10291447;28;20577;-64
2022/04/18 02:35:42;;;;;;;4.85;1.95;;;;;;;0.37;100.00;97412.72;10292356;28;20495;-63
2022/04/18 02:40:41;;;;;;;6.40;2.22;;;;;;;0.34;100.00;97382.00;10293106;28;20026;-63
2022/04/18 02:45:40;;;;;;;5.15;2.17;;;;;;;0.22;100.00;97324.63;10292105;28;20037;-63
2022/04/18 02:50:39;;;;;;;2.40;1.70;;;;;;;0.72;100.00;97392.56;10291428;28;20077;-63
2022/04/18 02:55:38;;;;;;;3.65;1.50;;;;;;;0.82;100.00;97379.25;10291826;28;20076;-64
2022/04/18 03:00:37;;;;;;;3.83;1.95;;;;;;;1.07;100.00;97391.97;10290554;28;20025;-64
2022/04/18 03:05:36;;;;;;;8.73;4.07;;;;;;;1.08;100.00;97374.94;10291473;28;20554;-64
2022/04/18 03:15:52;;;;;;;5.30;2.70;;;;;;;0.55;100.00;97305.25;10291026;28;20073;-64
2022/04/18 03:20:51;;;;;;;3.80;1.92;;;;;;;1.09;100.00;97380.09;10290831;28;20030;-64
2022/04/18 03:25:50;;;;;;;3.83;1.73;;;;;;;0.33;100.00;97247.53;10290723;28;20080;-64
2022/04/18 03:30:49;;;;;;;3.38;2.05;;;;;;;1.02;100.00;97390.97;10290539;28;20116;-64
2022/04/18 03:41:05;;;;;;;6.07;2.53;;;;;;;0.79;100.00;97351.94;10290373;28;20061;-64
2022/04/18 03:46:04;;;;;;;2.97;2.45;;;;;;;0.79;100.00;97377.47;10290079;28;20065;-64
2022/04/18 03:51:03;;;;;;;7.10;3.00;;;;;;;0.37;100.00;97303.81;10290030;28;20128;-64
2022/04/18 03:56:02;;;;;;;8.68;3.17;;;;;;;-0.02;100.00;97225.22;10290317;28;20037;-64
2022/04/18 04:01:01;;;;;;;6.47;3.05;;;;;;;0.60;100.00;97319.88;10289787;28;20507;-64
2022/04/18 04:06:00;;;;;;;4.30;2.25;;;;;;;0.07;100.00;97244.19;10289498;28;20410;-64
2022/04/18 04:10:59;;;;;;;4.07;2.50;;;;;;;0.52;100.00;97305.13;10293716;28;20076;-64
2022/04/18 04:15:58;;;;;;;6.25;2.80;;;;;;;1.03;100.00;97373.94;10298527;28;20057;-64
2022/04/18 04:20:57;;;;;;;4.85;2.75;;;;;;;0.97;100.00;97381.44;10297866;28;20057;-64
2022/04/18 04:25:56;;;;;;;7.18;2.80;;;;;;;1.12;100.00;97376.78;10297671;28;20030;-64
2022/04/18 04:30:55;;;;;;;7.10;3.97;;;;;;;1.13;100.00;97367.41;10297118;28;20029;-64
2022/04/18 04:35:54;;;;;;;5.85;3.10;;;;;;;1.15;100.00;97371.75;10297287;28;20396;-64
2022/04/18 04:40:54;;;;;;;7.40;3.30;;;;;;;1.17;100.00;97366.69;10286515;28;20132;-65
2022/04/18 04:45:52;;;;;;;5.13;2.83;;;;;;;0.83;100.00;97315.47;10296690;28;20075;-64
2022/04/18 04:50:52;;;;;;;5.10;2.47;;;;;;;0.87;100.00;97317.31;10296146;28;20042;-64
2022/04/18 04:55:51;;;;;;;4.22;2.28;;;;;;;1.08;100.00;97359.59;10292336;28;20061;-65
2022/04/18 05:00:50;;;;;;;5.45;2.97;;;;;;;0.96;100.00;97334.56;10291665;28;20109;-65
2022/04/18 05:05:48;;;;;;;7.60;3.28;;;;;;;1.26;100.00;97380.59;10294646;28;20072;-65
2022/04/18 05:10:47;;;;;;;5.10;3.40;;;;;;;1.20;100.00;97359.09;10293407;28;20038;-65
2022/04/18 05:15:46;;;;;;;6.38;3.22;;;;;;;0.72;100.00;97258.09;10292542;28;20040;-65
2022/04/18 05:20:46;;;;;;;9.00;4.10;;;;;;;1.22;100.00;97352.34;10293565;28;20062;-65
2022/04/18 05:25:45;;;;;;;6.22;2.85;;;;;;;1.01;100.00;97310.00;10295708;28;20065;-65
2022/04/18 05:30:44;;;;;;;5.88;3.25;;;;;;;1.56;100.00;97379.75;10293930;28;20113;-65
2022/04/18 05:35:43;;;;;;;5.80;3.05;;;;;;;1.41;100.00;97381.88;10293916;28;20042;-65
2022/04/18 05:40:42;;;;;;;3.97;2.10;;;;;;;1.30;100.00;97379.88;10293990;28;20026;-65
2022/04/18 05:45:41;;;;;;;3.92;1.95;;;;;;;0.82;100.00;97320.50;10291395;28;20061;-65
2022/04/18 05:50:45;;;;;;;2.28;1.58;;;;;;;0.98;100.00;97380.59;10293975;28;20435;-65
2022/04/18 05:55:44;;;;;;;5.10;2.38;;;;;;;1.17;100.00;97389.69;10294405;28;20065;-65
2022/04/18 06:00:43;;;;;;;4.78;2.47;;;;;;;0.96;100.00;97379.69;10293757;28;20943;-65
2022/04/18 06:05:41;;;;;;;6.03;2.35;;;;;;;0.34;100.00;97274.81;10293422;28;20034;-66
2022/04/18 06:10:41;;;;;;;3.67;2.38;;;;;;;1.23;100.00;97402.66;10292674;28;20459;-65
2022/04/18 06:15:40;;;;;;;5.05;2.63;;;;;;;0.48;100.00;97274.41;10287934;28;20073;-65
2022/04/18 06:20:39;;;;;;;4.80;2.80;;;;;;;1.31;100.00;97412.28;10276881;28;20030;-65
2022/04/18 06:25:38;;;;;;;5.78;2.85;;;;;;;0.86;100.00;97338.53;10273600;28;20121;-65
2022/04/18 06:30:37;;;;;;;5.95;2.92;;;;;;;0.79;100.00;97341.72;10270208;28;20116;-65
2022/04/18 06:35:36;;;;;;;;;;;;;;;1.28;100.00;97409.63;10290624;28;20069;-65
2022/04/18 06:40:35;;;;;;;6.30;2.90;;;;;;;0.57;100.00;97293.34;10282786;28;19944;-65
2022/04/18 06:45:34;;;;;;;4.22;2.05;;;;;;;0.52;100.00;97317.88;10289690;28;20068;-64
2022/04/18 06:50:33;;;;;;;4.68;2.42;;;;;;;0.76;100.00;97341.63;10289972;28;20053;-64
2022/04/18 06:56:58;;;;;;;8.13;4.20;;;;;;;1.24;100.00;97422.28;10291019;28;20125;-65
2022/04/18 07:00:51;;;;;;;6.10;2.75;;;;;;;1.17;100.00;97390.56;10290742;28;20058;-65
2022/04/18 07:05:50;;;;;;;2.22;1.65;;;;;;;1.11;100.00;97365.69;10291071;28;20033;-65
2022/04/18 07:10:50;;;;;;;5.57;2.95;;;;;;;0.81;100.00;97299.22;10281575;28;20073;-65
2022/04/18 07:15:49;;;;;;;5.03;2.65;;;;;;;1.57;100.00;97422.41;10293394;28;20065;-64
2022/04/18 07:20:48;;;;;;;5.63;2.95;;;;;;;1.13;100.00;97383.63;10292660;28;20480;-64
2022/04/18 07:25:47;;;;;;;4.03;2.13;;;;;;;0.76;100.00;97318.66;10291945;28;20040;-64
2022/04/18 07:30:45;;;;;;;6.63;2.83;;;;;;;1.47;100.00;97415.28;10292067;28;20116;-64
2022/04/18 07:35:44;;;;;;;5.38;2.40;;;;;;;1.61;100.00;97423.38;10292168;28;20033;-64
2022/04/18 07:40:43;;;;;;;4.40;2.28;;;;;;;1.51;100.00;97422.25;10292234;28;20479;-64
2022/04/18 07:45:42;;;;;;;8.43;2.97;;;;;;;1.57;100.00;97440.28;10291757;28;20121;-64
2022/04/18 07:55:59;;;;;;;5.75;3.78;;;;;;;1.54;100.00;97401.84;10291406;28;20492;-64
2022/04/18 08:00:58;;;;;;;3.75;2.30;;;;;;;1.52;100.00;97370.25;10291558;28;20021;-64
2022/04/18 08:05:57;;;;;;;7.60;3.30;;;;;;;1.93;100.00;97432.81;10291446;28;20072;-64
2022/04/18 08:10:57;;;;;;;8.55;3.28;;;;;;;1.96;100.00;97434.59;10291420;28;20065;-63
2022/04/18 08:15:57;;;;;;;3.50;2.17;;;;;;;2.17;100.00;97437.72;10291085;28;20073;-64
2022/04/18 08:20:56;;;;;;;;;;;;;;;2.28;100.00;97443.13;10291918;28;20057;-63
2022/04/18 08:25:54;;;;;;;6.78;4.10;;;;;;;1.85;100.00;97366.91;10290911;28;20000;-64
2022/04/18 08:30:54;;;;;;;6.00;3.20;;;;;;;2.26;100.00;97408.94;10289484;28;20037;-64
2022/04/18 08:35:53;;;;;;;;;;;;;;;2.85;100.00;97436.88;10289423;28;20069;-65
2022/04/18 08:40:55;;;;;;;7.45;3.85;;;;;;;3.35;100.00;97415.78;10287536;28;19953;-63
2022/04/18 08:45:56;;;;;;;7.50;4.10;;;;;;;4.15;100.00;97438.84;10286599;28;20062;-63
2022/04/18 08:56:14;;;;;;;4.45;2.80;;;;;;;4.85;100.00;97341.53;10289637;28;20125;-63
2022/04/18 09:01:13;;;;;;;2.90;1.85;;;;;;;5.69;100.00;97402.72;10295340;28;20049;-62
2022/04/18 09:06:13;;;;;;;4.90;2.50;;;;;;;6.11;95.11;97420.38;10296442;28;20036;-64
2022/04/18 09:11:29;;;;;;;5.15;2.85;;;;;;;5.82;94.16;97375.41;10295503;28;20088;-64
2022/04/18 09:16:29;;;;;;;5.55;3.78;;;;;;;5.98;93.57;97419.38;10295505;28;20057;-64
2022/04/18 09:21:28;;;;;;;7.03;3.60;;;;;;;5.18;88.83;97365.16;10295258;28;20061;-63
2022/04/18 09:26:27;;;;;;;7.00;3.10;;;;;;;5.09;89.53;97358.19;10295026;28;20026;-63
2022/04/18 09:31:27;;;;;;;6.35;3.22;;;;;;;4.74;87.74;97307.09;10294533;28;20488;-64
2022/04/18 09:36:26;;;;;;;3.80;2.60;;;;;;;5.45;88.46;97408.41;10294524;28;20484;-63
2022/04/18 09:41:32;;;;;;;3.17;2.40;;;;;;;5.30;90.46;97329.31;10294148;28;20040;-63
2022/04/18 09:46:31;;;;;;;4.18;2.53;;;;;;;5.55;87.64;97408.56;10294293;28;20069;-63
2022/04/18 09:51:33;;;;;;;;;;;;;;;5.00;85.92;97402.63;10294423;28;20077;-62
2022/04/18 09:56:33;;;;;;;6.68;2.90;;;;;;;4.23;86.76;97349.09;10293706;28;19963;-63
2022/04/18 10:01:33;;;;;;;;;;;;;;;4.29;86.03;97400.53;10294257;28;20095;-63
2022/04/18 10:06:32;;;;;;;6.50;3.17;;;;;;;4.69;90.16;97389.25;10293487;28;19952;-63
2022/04/18 10:11:31;;;;;;;5.18;2.80;;;;;;;5.22;86.75;97382.38;10293580;28;20078;-62
2022/04/18 10:16:30;;;;;;;3.92;2.30;;;;;;;5.42;87.55;97313.19;10293134;28;20076;-62
2022/04/18 10:21:30;;;;;;;5.95;3.10;;;;;;;6.30;83.75;97372.47;10293559;28;20062;-62
2022/04/18 10:26:47;;;;;;;4.55;3.00;;;;;;;6.54;79.15;97368.44;10292637;28;20061;-62
2022/04/18 10:31:50;;;;;;;3.85;2.17;;;;;;;6.46;75.43;97313.34;10290824;28;20070;-62
2022/04/18 10:36:54;;;;;;;5.80;3.08;;;;;;;6.29;75.21;97349.28;10292635;28;20062;-61
2022/04/18 10:41:54;;;;;;;3.08;2.17;;;;;;;5.91;75.36;97363.50;10292290;28;20053;-61
2022/04/18 10:46:55;;;;;;;5.05;2.97;;;;;;;5.89;76.61;97357.47;10291617;28;20068;-61
2022/04/18 10:51:54;;;;;;;5.90;2.53;;;;;;;5.47;76.27;97280.63;10291326;28;20080;-61
2022/04/18 10:56:56;;;;;;;3.22;2.28;;;;;;;6.39;77.92;97349.38;10292167;28;20065;-61
2022/04/18 11:01:58;;;;;;;2.17;1.98;;;;;;;6.73;79.90;97339.34;10290862;28;20069;-61
2022/04/18 11:07:05;;;;;;;15.27;6.72;;;;;;;6.81;72.71;97332.53;10291685;28;20061;-61
2022/04/18 11:12:10;;;;;;;2.33;1.60;;;;;;;7.01;77.56;97342.97;10290708;28;20058;-62
2022/04/18 11:17:11;;;;;;;2.55;1.88;;;;;;;6.50;73.99;97261.84;10291418;28;20057;-61
2022/04/18 11:22:18;;;;;;;5.45;2.40;;;;;;;6.61;73.16;97328.94;10290037;28;20057;-62
2022/04/18 11:27:30;;;;;;;4.03;2.50;;;;;;;6.23;74.12;97326.03;10290821;28;20072;-61
2022/04/18 11:32:34;;;;;;;2.85;2.08;;;;;;;6.32;77.53;97329.56;10290426;28;20061;-61
2022/04/18 11:37:36;;;;;;;2.58;1.85;;;;;;;6.77;80.46;97323.06;10290441;28;20076;-61
2022/04/18 11:42:37;;;;;;;2.53;1.65;;;;;;;7.10;80.28;97324.13;10289973;28;20072;-61
2022/04/18 11:47:47;;;;;;;2.80;1.65;;;;;;;7.55;75.78;97327.81;10289984;28;20077;-61
2022/04/18 11:52:46;;;;;;;2.33;1.30;;;;;;;7.21;73.91;97252.78;10290856;28;20508;-61
2022/04/18 11:57:48;;;;;;;2.65;2.00;;;;;;;7.70;68.32;97326.13;10285967;28;20125;-61
2022/04/18 12:08:08;;;;;;;2.50;1.80;;;;;;;7.86;69.41;97277.09;10289656;28;20069;-61
2022/04/18 12:13:12;;;;;;;2.05;1.80;;;;;;;8.21;73.52;97284.03;10289219;28;20053;-61
2022/04/18 12:18:18;;;;;;;2.97;1.80;;;;;;;8.04;70.61;97254.75;10277416;28;20084;-61
2022/04/18 12:23:25;;;;;;;1.67;1.50;;;;;;;8.01;71.60;97301.25;10288938;28;20049;-61
2022/04/18 12:28:30;;;;;;;2.45;2.00;;;;;;;7.99;74.94;97293.50;10286921;28;20068;-61
2022/04/18 12:33:30;;;;;;;1.70;1.40;;;;;;;8.07;74.26;97286.63;10295797;28;20072;-61
2022/04/18 12:38:36;;;;;;;11.27;3.80;;;;;;;8.25;76.13;97285.78;10297147;28;20061;-61
2022/04/18 12:43:37;;;;;;;16.80;7.50;;;;;;;8.43;71.36;97264.22;10296999;28;20092;-61
2022/04/18 12:48:37;;;;;;;5.38;3.00;;;;;;;8.50;70.12;97270.25;10296523;28;20071;-61
2022/04/18 12:53:50;;;;;;;2.17;1.90;;;;;;;8.36;72.21;97267.66;10296810;28;20077;-61
2022/04/18 12:58:56;;;;;;;2.65;1.90;;;;;;;8.15;71.67;97262.50;10296757;28;20077;-62
2022/04/18 13:03:56;;;;;;;3.42;2.20;;;;;;;7.66;70.99;97269.31;10295958;28;20057;-61
2022/04/18 13:08:57;;;;;;;9.60;4.65;;;;;;;7.63;72.33;97269.28;10295916;28;20384;-61
2022/04/18 13:14:06;;;;;;;28.77;15.32;;;;;;;7.42;74.58;97267.50;10295119;28;20687;-61
2022/04/18 13:19:10;;;;;;;30.43;13.13;;;;;;;7.33;76.67;97257.13;10295664;28;20072;-61
2022/04/18 13:24:10;;;;;;;9.95;4.43;;;;;;;7.47;77.38;97264.09;10295313;28;20057;-61
2022/04/18 13:29:09;;;;;;;3.70;1.98;;;;;;;7.49;78.29;97267.53;10295150;28;20507;-62
2022/04/18 13:34:08;;;;;;;14.75;9.50;;;;;;;6.83;75.18;97152.00;10294696;28;20538;-62
2022/04/18 13:39:11;;;;;;;4.82;3.53;;;;;;;7.43;72.16;97268.41;10294649;28;20655;-61
2022/04/18 13:44:11;;;;;;;7.35;3.97;;;;;;;7.39;76.38;97272.63;10293890;28;20061;-62
2022/04/18 13:49:10;;;;;;;5.30;3.03;;;;;;;7.50;75.46;97267.56;10293309;28;20082;-62
2022/04/18 13:54:09;;;;;;;11.43;6.22;;;;;;;7.54;74.15;97276.16;10294064;28;20084;-62
2022/04/18 13:59:07;;;;;;;12.88;7.05;;;;;;;7.12;75.73;97202.84;10293852;28;20065;-60
2022/04/18 14:04:06;;;;;;;9.25;5.75;;;;;;;7.26;75.22;97229.56;10293924;28;20056;-60
2022/04/18 14:09:08;;;;;;;10.55;5.82;;;;;;;7.54;75.37;97268.41;10294264;28;20044;-59
2022/04/18 14:14:07;;;;;;;9.25;6.38;;;;;;;7.53;74.04;97271.88;10292399;28;20061;-60
2022/04/18 14:24:24;;;;;;;4.18;3.22;;;;;;;7.24;74.46;97254.50;10293113;28;20069;-59
2022/04/18 14:29:23;;;;;;;4.47;3.10;;;;;;;7.29;75.88;97257.97;10292809;28;20034;-59
2022/04/18 14:34:22;;;;;;;5.07;4.00;;;;;;;7.04;74.67;97236.38;10292530;28;20456;-59
2022/04/18 14:39:21;;;;;;;3.95;2.88;;;;;;;6.51;75.00;97258.41;10291141;28;20073;-59
2022/04/18 14:44:20;;;;;;;4.55;2.83;;;;;;;6.48;76.96;97262.69;10292109;28;20037;-59
2022/04/18 14:49:19;;;;;;;7.95;5.20;;;;;;;6.59;78.58;97264.47;10291874;28;20418;-62
2022/04/18 14:54:18;;;;;;;;;;;;;;;6.58;77.58;97264.47;10291342;28;20061;-60
2022/04/18 14:59:17;;;;;;;15.25;6.28;;;;;;;6.54;79.15;97258.44;10291671;28;19909;-60
2022/04/18 15:04:16;;;;;;;10.63;5.50;;;;;;;5.84;77.69;97181.47;10290582;28;20056;-60
2022/04/18 15:09:15;;;;;;;32.40;14.30;;;;;;;6.28;79.05;97271.13;10289378;28;20044;-59
2022/04/18 15:14:15;;;;;;;23.60;11.10;;;;;;;6.09;79.07;97256.34;10290593;28;20030;-60
2022/04/18 15:19:14;;;;;;;15.85;7.10;;;;;;;5.90;80.26;97240.72;10288758;28;20081;-60
2022/04/18 15:24:13;;;;;;;19.80;10.20;;;;;;;5.86;80.17;97254.44;10288029;28;20037;-60
2022/04/18 15:29:12;;;;;;;48.10;21.23;;;;;;;5.83;80.09;97264.69;10291300;28;20026;-61
2022/04/18 15:34:11;;;;;;;33.58;15.80;;;;;;;5.80;80.83;97262.09;10263583;28;20129;-61
2022/04/18 15:39:10;;;;;;;15.52;6.25;;;;;;;5.88;81.91;97263.06;10250525;28;20040;-61
2022/04/18 15:44:09;;;;;;;40.17;19.20;;;;;;;5.79;80.52;97267.22;10249852;28;20065;-61
2022/04/18 15:49:08;;;;;;;20.27;11.13;;;;;;;5.44;81.13;97224.84;10249706;28;20034;-61
2022/04/18 15:54:07;;;;;;;16.73;8.15;;;;;;;5.60;79.19;97255.88;10250215;28;20069;-61
2022/04/18 15:59:06;;;;;;;39.75;18.88;;;;;;;5.44;79.64;97250.59;10249301;28;20046;-61
2022/04/18 16:04:06;;;;;;;29.92;12.02;;;;;;;5.30;80.73;97259.84;10264793;28;20136;-60
2022/04/18 16:09:05;;;;;;;79.90;39.75;;;;;;;5.30;83.03;97265.00;10262696;28;20062;-60
2022/04/18 16:14:04;;;;;;;;;;;;;;;5.37;82.92;97265.91;10301322;28;20057;-61
2022/04/18 16:19:04;;;;;;;8.52;4.03;;;;;;;5.09;83.56;97230.47;10302432;28;19913;-60
2022/04/18 16:24:03;;;;;;;6.50;3.70;;;;;;;5.20;82.88;97270.88;10303133;28;20060;-60
2022/04/18 16:34:21;;;;;;;18.65;9.02;;;;;;;5.06;83.93;97279.28;10302252;28;20479;-60
2022/04/18 16:39:21;;;;;;;11.32;5.75;;;;;;;5.09;84.55;97270.75;10301418;28;20069;-61
2022/04/18 16:49:37;;;;;;;10.75;6.30;;;;;;;5.07;85.02;97280.16;10302063;28;20012;-61
2022/04/18 16:54:39;;;;;;;9.55;4.78;;;;;;;4.55;83.55;97238.25;10302144;28;20455;-61
2022/04/18 16:59:38;;;;;;;10.88;6.88;;;;;;;4.74;84.87;97286.53;10302217;28;20073;-61
2022/04/18 17:04:38;;;;;;;8.98;5.32;;;;;;;4.75;85.04;97292.53;10301591;28;20072;-61
2022/04/18 17:09:38;;;;;;;10.55;5.10;;;;;;;4.64;84.10;97275.25;10301673;28;20068;-61
2022/04/18 17:14:36;;;;;;;7.88;4.35;;;;;;;4.67;82.78;97289.84;10301682;28;20065;-61
2022/04/18 17:19:36;;;;;;;12.82;5.82;;;;;;;4.53;84.37;97292.22;10295537;28;20116;-61
2022/04/18 17:24:35;;;;;;;8.80;4.30;;;;;;;4.43;83.43;97296.34;10295075;28;20072;-61
2022/04/18 17:29:34;;;;;;;9.10;5.47;;;;;;;4.40;84.92;97291.13;10294989;28;20044;-60
2022/04/18 17:34:33;;;;;;;8.13;4.90;;;;;;;3.92;85.28;97219.34;10294902;28;20503;-61
2022/04/18 17:39:32;;;;;;;10.10;5.43;;;;;;;4.28;84.88;97304.66;10294465;28;20072;-61
2022/04/18 17:44:31;;;;;;;12.15;7.38;;;;;;;4.36;86.20;97303.91;10292924;28;20113;-61
2022/04/18 17:49:30;;;;;;;16.83;10.35;;;;;;;4.27;86.64;97290.09;10294241;28;20061;-61
2022/04/18 17:59:47;;;;;;;7.38;4.85;;;;;;;4.41;86.82;97313.44;10293431;28;20452;-61
2022/04/18 18:04:46;;;;;;;10.80;5.63;;;;;;;4.45;86.85;97310.06;10308783;28;20466;-61
2022/04/18 18:09:46;;;;;;;10.48;5.60;;;;;;;4.45;86.57;97311.75;10294039;28;20048;-61
2022/04/18 18:14:44;;;;;;;27.42;14.63;;;;;;;4.53;86.96;97314.47;10292998;28;20066;-61
2022/04/18 18:19:44;;;;;;;38.35;17.95;;;;;;;4.45;87.39;97325.47;10293644;28;20112;-61
2022/04/18 18:24:43;;;;;;;16.55;8.23;;;;;;;4.51;87.31;97329.84;10292767;28;20066;-61
2022/04/18 18:29:42;;;;;;;25.85;13.25;;;;;;;4.37;88.27;97328.78;10292247;28;20041;-61
2022/04/18 18:34:41;;;;;;;22.45;10.40;;;;;;;4.38;87.94;97317.66;10292480;28;20484;-61
2022/04/18 18:39:40;;;;;;;16.08;8.68;;;;;;;4.48;87.92;97322.13;10292508;28;20546;-61
2022/04/18 18:44:39;;;;;;;;;;;;;;;4.49;87.92;97328.97;10291805;28;20069;-61
2022/04/18 18:49:38;;;;;;;13.43;7.60;;;;;;;4.34;87.85;97326.13;10291977;28;19924;-61
2022/04/18 18:54:37;;;;;;;10.50;5.47;;;;;;;4.35;88.39;97330.44;10291624;28;20465;-61
2022/04/18 18:59:36;;;;;;;11.85;6.65;;;;;;;4.01;88.26;97260.53;10291119;28;20071;-61
2022/04/18 19:04:35;;;;;;;10.40;6.28;;;;;;;3.98;88.25;97265.63;10291346;28;20037;-61
2022/04/18 19:09:34;;;;;;;10.05;5.10;;;;;;;4.28;88.21;97312.34;10290989;28;20080;-61
2022/04/18 19:14:33;;;;;;;7.55;3.95;;;;;;;4.42;88.16;97324.56;10290539;28;20037;-61
2022/04/18 19:30:07;;;;;;;10.52;5.28;;;;;;;4.02;88.12;97260.56;10290684;28;20858;-62
2022/04/18 19:35:06;;;;;;;;;;;;;;;4.35;87.99;97331.31;10291229;28;20081;-62
2022/04/18 19:40:06;;;;;;;9.50;4.93;;;;;;;4.33;87.76;97339.84;10289481;28;19952;-62
2022/04/18 19:45:06;;;;;;;9.88;4.63;;;;;;;4.28;87.94;97343.19;10289913;28;20057;-62
2022/04/18 19:50:08;;;;;;;10.52;4.70;;;;;;;4.25;88.69;97355.97;10289302;28;20077;-62
2022/04/18 19:55:11;;;;;;;9.15;4.72;;;;;;;4.26;88.48;97347.41;10289681;28;20072;-62
2022/04/18 20:00:11;;;;;;;9.98;5.38;;;;;;;3.99;88.44;97287.91;10290043;28;20568;-62
2022/04/18 20:05:10;;;;;;;9.75;4.63;;;;;;;3.51;88.31;97206.66;10289219;28;20066;-61
2022/04/18 20:10:09;;;;;;;11.02;5.47;;;;;;;4.36;88.65;97342.44;10289084;28;20061;-62
2022/04/18 20:15:09;;;;;;;13.32;5.97;;;;;;;4.18;88.39;97302.78;10290204;28;20026;-62
2022/04/18 20:20:08;;;;;;;7.75;4.38;;;;;;;4.29;88.45;97338.91;10288856;28;20061;-62
2022/04/18 20:25:07;;;;;;;7.60;4.15;;;;;;;4.34;88.78;97339.88;10289173;28;20053;-62
2022/04/18 20:30:07;;;;;;;7.68;4.50;;;;;;;4.35;88.65;97333.03;10289579;28;20123;-62
2022/04/18 20:35:06;;;;;;;9.70;4.25;;;;;;;4.32;88.77;97338.97;10289221;28;20077;-62
2022/04/18 20:40:07;;;;;;;10.80;4.93;;;;;;;4.27;88.39;97340.59;10289152;28;20057;-62
2022/04/18 20:45:07;;;;;;;97.38;34.80;;;;;;;4.22;88.65;97335.38;10288762;28;20061;-62
2022/04/18 20:50:06;;;;;;;49.60;19.50;;;;;;;4.12;88.65;97337.75;10288979;28;20085;-62
2022/04/18 21:00:23;;;;;;;13.63;7.38;;;;;;;4.16;89.47;97331.84;10296211;28;20069;-62
2022/04/18 21:05:22;;;;;;;24.23;11.27;;;;;;;4.03;89.28;97331.63;10296307;28;20051;-62
2022/04/18 21:10:21;;;;;;;17.42;9.32;;;;;;;3.79;90.11;97316.63;10295747;28;20091;-62
2022/04/18 21:15:20;;;;;;;14.48;7.50;;;;;;;3.74;90.32;97325.94;10295705;28;20061;-62
2022/04/18 21:20:19;;;;;;;13.05;7.10;;;;;;;3.56;90.99;97323.88;10295514;28;20037;-62
2022/04/18 21:25:18;;;;;;;18.13;9.13;;;;;;;3.36;91.00;97300.44;10295295;28;20116;-62
2022/04/18 21:30:17;;;;;;;;;;;;;;;3.36;90.94;97325.22;10295616;28;20073;-62
2022/04/18 21:35:17;;;;;;;10.23;4.68;;;;;;;3.41;91.43;97324.47;10295346;28;19952;-62
2022/04/18 21:40:16;;;;;;;12.50;5.40;;;;;;;3.54;91.63;97319.56;10294687;28;20065;-62
2022/04/18 21:45:17;;;;;;;12.00;5.82;;;;;;;3.52;91.53;97293.91;10294750;28;20087;-62
2022/04/18 21:50:16;;;;;;;8.80;4.30;;;;;;;3.81;91.45;97327.78;10294084;28;20085;-62
2022/04/18 21:55:15;;;;;;;7.97;4.63;;;;;;;3.23;91.21;97224.06;10294071;28;20058;-62
2022/04/18 22:00:18;;;;;;;7.00;4.35;;;;;;;3.73;90.98;97293.44;10293034;28;20053;-62
2022/04/18 22:05:17;;;;;;;7.28;4.00;;;;;;;3.94;91.07;97318.63;10293397;28;20061;-62
2022/04/18 22:10:16;;;;;;;6.50;3.83;;;;;;;4.02;91.08;97323.91;10290103;28;20062;-62
2022/04/18 22:15:15;;;;;;;6.95;4.10;;;;;;;4.06;90.93;97321.41;10290643;28;20080;-62
2022/04/18 22:25:31;;;;;;;5.47;3.25;;;;;;;4.11;90.36;97307.78;10292275;28;20065;-62
2022/04/18 22:30:31;;;;;;;8.57;4.30;;;;;;;4.09;89.88;97305.19;10293137;28;20065;-62
2022/04/18 22:35:30;;;;;;;7.80;4.40;;;;;;;3.77;89.67;97251.56;10292657;28;20073;-62
2022/04/18 22:40:29;;;;;;;8.90;3.92;;;;;;;4.02;89.70;97277.69;10292515;28;20069;-62
2022/04/18 22:45:28;;;;;;;7.00;4.05;;;;;;;3.94;89.78;97267.28;10292105;28;20045;-62
2022/04/18 22:50:27;;;;;;;7.22;2.83;;;;;;;4.18;89.76;97300.22;10292137;28;20089;-62
2022/04/18 22:55:26;;;;;;;5.90;2.45;;;;;;;4.18;89.15;97302.78;10292775;28;20147;-62
2022/04/18 23:00:26;;;;;;;2.78;1.75;;;;;;;4.09;88.44;97302.63;10291797;28;20546;-62
2022/04/18 23:10:42;;;;;;;1.35;1.08;;;;;;;3.93;86.96;97292.94;10290938;28;20062;-62
2022/04/18 23:15:41;;;;;;;0.82;0.80;;;;;;;3.91;86.99;97274.06;10289499;28;20033;-62
2022/04/18 23:20:41;;;;;;;0.98;0.95;;;;;;;3.12;85.96;97159.81;10290897;28;20091;-62
2022/04/18 23:25:40;;;;;;;2.08;1.25;;;;;;;3.77;86.71;97277.25;10290716;28;20470;-62
2022/04/18 23:30:39;;;;;;;2.78;1.40;;;;;;;3.74;86.64;97272.06;10289292;28;20046;-62
2022/04/18 23:35:38;;;;;;;2.70;1.30;;;;;;;3.52;87.04;97241.72;10290669;28;20026;-62
2022/04/18 23:45:54;;;;;;;3.63;2.05;;;;;;;3.71;86.38;97245.50;10290627;28;20069;-62
2022/04/18 23:50:53;;;;;;;3.33;1.48;;;;;;;3.17;86.61;97167.56;10290235;28;20082;-62
2022/04/18 23:56:03;;;;;;;6.82;2.85;;;;;;;3.64;86.25;97229.13;10289701;28;20037;-62
